createdAt,value
2024-01-24T00:02:21.928Z,103248.78
2024-01-24T00:04:48.833Z,103241.75
2024-01-24T00:07:16.092Z,103242.63
2024-01-24T00:09:45.638Z,103242.63
2024-01-24T00:12:15.949Z,103240.22
2024-01-24T00:14:48.704Z,103232.44
2024-01-24T00:17:15.626Z,103231.88
2024-01-24T00:19:42.616Z,103222.53
2024-01-24T00:22:12.589Z,103228.22
2024-01-24T00:24:39.463Z,103233.19
2024-01-24T00:27:06.715Z,103230.41
2024-01-24T00:29:33.630Z,103227.75
2024-01-24T00:32:00.606Z,103227.50
2024-01-24T00:34:27.490Z,103232.47
2024-01-24T00:36:54.493Z,103231.25
2024-01-24T00:39:21.703Z,103233.06
2024-01-24T00:41:48.652Z,103235.84
2024-01-24T00:44:16.019Z,103236.81
2024-01-24T00:46:42.850Z,103233.91
2024-01-24T00:49:11.124Z,103236.47
2024-01-24T00:51:38.383Z,103224.84
2024-01-24T00:54:15.175Z,103226.41
2024-01-24T00:56:42.095Z,103216.59
2024-01-24T00:59:09.593Z,103212.97
2024-01-24T01:01:36.507Z,103207.41
2024-01-24T01:04:05.069Z,103200.50
2024-01-24T01:06:32.353Z,103199.66
2024-01-24T01:09:01.947Z,103197.09
2024-01-24T01:11:28.942Z,103200.88
2024-01-24T01:13:55.897Z,103200.13
2024-01-24T01:16:22.886Z,103195.06
2024-01-24T01:18:49.884Z,103196.00
2024-01-24T01:21:16.803Z,103203.41
2024-01-24T01:23:43.744Z,103196.84
2024-01-24T01:26:10.612Z,103196.97
2024-01-24T01:28:37.431Z,103211.25
2024-01-24T01:31:04.393Z,103218.78
2024-01-24T01:33:31.426Z,103212.13
2024-01-24T01:36:09.117Z,103203.63
2024-01-24T01:38:44.678Z,103194.81
2024-01-24T01:41:11.655Z,103190.44
2024-01-24T01:43:38.754Z,103190.91
2024-01-24T01:46:11.630Z,103194.63
2024-01-24T01:48:39.362Z,103198.50
2024-01-24T01:51:07.077Z,103186.53
2024-01-24T01:53:39.942Z,103199.75
2024-01-24T01:56:13.442Z,103194.44
2024-01-24T01:58:42.035Z,103194.69
2024-01-24T02:01:09.843Z,103189.38
2024-01-24T02:03:45.174Z,103188.03
2024-01-24T02:06:12.401Z,103181.25
2024-01-24T02:08:41.040Z,103187.78
2024-01-24T02:11:08.268Z,103183.78
2024-01-24T02:13:35.188Z,103183.91
2024-01-24T02:16:04.845Z,103183.91
2024-01-24T02:18:32.021Z,103179.91
2024-01-24T02:20:59.252Z,103184.28
2024-01-24T02:23:27.809Z,103180.88
2024-01-24T02:25:55.033Z,103178.84
2024-01-24T02:28:22.073Z,103174.59
2024-01-24T02:30:49.167Z,103185.00
2024-01-24T02:33:16.417Z,103175.09
2024-01-24T02:35:43.620Z,103182.13
2024-01-24T02:38:10.576Z,103174.00
2024-01-24T02:40:37.685Z,103177.50
2024-01-24T02:43:04.949Z,103174.97
2024-01-24T02:45:32.012Z,103172.16
2024-01-24T02:47:58.959Z,103176.41
2024-01-24T02:50:25.888Z,103181.00
2024-01-24T02:52:52.808Z,103186.94
2024-01-24T02:55:19.908Z,103192.28
2024-01-24T02:57:46.890Z,103188.75
2024-01-24T03:00:14.540Z,103186.94
2024-01-24T03:02:41.672Z,103180.66
2024-01-24T03:05:11.668Z,103186.69
2024-01-24T03:07:39.422Z,103179.44
2024-01-24T03:10:07.228Z,103185.13
2024-01-24T03:12:34.344Z,103174.84
2024-01-24T03:15:01.284Z,103179.78
2024-01-24T03:17:28.284Z,103173.13
2024-01-24T03:19:56.129Z,103166.59
2024-01-24T03:22:26.377Z,103169.78
2024-01-24T03:24:53.956Z,103170.47
2024-01-24T03:27:20.993Z,103172.44
2024-01-24T03:29:47.959Z,103175.31
2024-01-24T03:32:14.789Z,103172.66
2024-01-24T03:34:41.846Z,103165.66
2024-01-24T03:37:08.739Z,103167.81
2024-01-24T03:39:37.462Z,103166.25
2024-01-24T03:42:05.032Z,103156.09
2024-01-24T03:44:31.998Z,103168.19
2024-01-24T03:46:59.153Z,103168.16
2024-01-24T03:49:26.205Z,103158.13
2024-01-24T03:51:53.331Z,103161.38
2024-01-24T03:54:21.128Z,103164.03
2024-01-24T03:56:48.235Z,103159.09
2024-01-24T03:59:17.116Z,103159.66
2024-01-24T04:01:44.109Z,103171.00
2024-01-24T04:04:11.143Z,103166.53
2024-01-24T04:06:38.204Z,103167.56
2024-01-24T04:09:05.259Z,103171.91
2024-01-24T04:11:32.185Z,103184.53
2024-01-24T04:13:59.037Z,103191.06
2024-01-24T04:16:25.929Z,103193.22
2024-01-24T04:18:52.976Z,103194.50
2024-01-24T04:21:19.968Z,103201.97
2024-01-24T04:23:46.908Z,103201.06
2024-01-24T04:26:13.856Z,103192.81
2024-01-24T04:28:40.727Z,103193.34
2024-01-24T04:31:07.670Z,103184.53
2024-01-24T04:33:34.706Z,103187.72
2024-01-24T04:36:02.567Z,103185.13
2024-01-24T04:38:29.468Z,103178.34
2024-01-24T04:40:57.602Z,103178.44
2024-01-24T04:43:24.555Z,103176.09
2024-01-24T04:45:52.026Z,103183.25
2024-01-24T04:48:19.143Z,103188.66
2024-01-24T04:50:46.172Z,103186.53
2024-01-24T04:53:13.098Z,103189.31
2024-01-24T04:55:39.940Z,103190.38
2024-01-24T04:58:06.872Z,103195.50
2024-01-24T05:00:33.854Z,103193.75
2024-01-24T05:03:01.473Z,103187.19
2024-01-24T05:05:28.610Z,103185.06
2024-01-24T05:07:55.907Z,103171.53
2024-01-24T05:10:22.868Z,103172.25
2024-01-24T05:12:49.876Z,103180.34
2024-01-24T05:15:16.812Z,103175.56
2024-01-24T05:17:43.864Z,103181.38
2024-01-24T05:20:12.291Z,103179.47
2024-01-24T05:22:39.330Z,103170.75
2024-01-24T05:25:06.645Z,103175.09
2024-01-24T05:27:33.490Z,103170.13
2024-01-24T05:30:08.975Z,103161.63
2024-01-24T05:32:42.999Z,103161.75
2024-01-24T05:35:10.044Z,103170.69
2024-01-24T05:37:37.068Z,103163.06
2024-01-24T05:40:05.202Z,103164.63
2024-01-24T05:42:32.295Z,103165.31
2024-01-24T05:44:59.261Z,103161.16
2024-01-24T05:47:26.262Z,103160.41
2024-01-24T05:49:53.163Z,103164.28
2024-01-24T05:52:20.147Z,103166.75
2024-01-24T05:54:47.066Z,103157.06
2024-01-24T05:57:13.995Z,103159.72
2024-01-24T05:59:40.937Z,103153.34
2024-01-24T06:02:07.954Z,103151.63
2024-01-24T06:04:35.019Z,103154.53
2024-01-24T06:07:02.933Z,103155.38
2024-01-24T06:09:29.967Z,103154.84
2024-01-24T06:11:57.150Z,103140.31
2024-01-24T06:14:24.099Z,103138.44
2024-01-24T06:16:51.988Z,103147.28
2024-01-24T06:19:21.587Z,103149.41
2024-01-24T06:21:48.540Z,103144.88
2024-01-24T06:24:15.480Z,103141.91
2024-01-24T06:26:42.447Z,103131.72
2024-01-24T06:29:09.575Z,103143.03
2024-01-24T06:31:36.525Z,103148.53
2024-01-24T06:34:03.756Z,103142.97
2024-01-24T06:36:30.763Z,103147.00
2024-01-24T06:38:57.700Z,103160.41
2024-01-24T06:41:24.631Z,103160.16
2024-01-24T06:43:52.108Z,103165.06
2024-01-24T06:46:19.235Z,103170.97
2024-01-24T06:48:46.213Z,103172.22
2024-01-24T06:51:14.545Z,103172.97
2024-01-24T06:53:41.537Z,103175.16
2024-01-24T06:56:09.862Z,103168.59
2024-01-24T06:58:38.863Z,103173.97
2024-01-24T07:01:06.051Z,103190.78
2024-01-24T07:03:33.221Z,103181.63
2024-01-24T07:06:00.400Z,103181.53
2024-01-24T07:08:27.307Z,103182.28
2024-01-24T07:10:54.302Z,103188.25
2024-01-24T07:13:21.179Z,103189.94
2024-01-24T07:15:48.315Z,103203.97
2024-01-24T07:18:15.330Z,103194.63
2024-01-24T07:20:42.459Z,103185.19
2024-01-24T07:23:09.634Z,103187.72
2024-01-24T07:25:36.516Z,103190.47
2024-01-24T07:28:03.503Z,103191.94
2024-01-24T07:30:30.519Z,103196.69
2024-01-24T07:32:57.480Z,103198.25
2024-01-24T07:35:24.467Z,103201.97
2024-01-24T07:37:51.624Z,103193.06
2024-01-24T07:40:18.538Z,103208.34
2024-01-24T07:42:45.471Z,103198.00
2024-01-24T07:45:12.482Z,103206.25
2024-01-24T07:47:40.325Z,103203.13
2024-01-24T07:50:08.371Z,103206.66
2024-01-24T07:52:40.937Z,103198.22
2024-01-24T07:55:11.112Z,103209.38
2024-01-24T07:57:38.954Z,103211.09
2024-01-24T08:00:07.465Z,103214.38
2024-01-24T08:02:35.120Z,103214.59
2024-01-24T08:05:02.284Z,103212.53
2024-01-24T08:07:31.577Z,103217.13
2024-01-24T08:09:58.626Z,103218.06
2024-01-24T08:12:25.697Z,103217.44
2024-01-24T08:14:52.774Z,103224.94
2024-01-24T08:17:21.055Z,103221.28
2024-01-24T08:19:49.990Z,103228.19
2024-01-24T08:22:17.087Z,103230.25
2024-01-24T08:24:45.588Z,103227.28
2024-01-24T08:27:12.843Z,103224.81
2024-01-24T08:29:39.864Z,103224.94
2024-01-24T08:32:07.429Z,103220.88
2024-01-24T08:34:37.173Z,103228.03
2024-01-24T08:37:05.264Z,103230.38
2024-01-24T08:39:33.615Z,103227.59
2024-01-24T08:42:01.657Z,103239.97
2024-01-24T08:44:28.694Z,103239.13
2024-01-24T08:46:55.714Z,103224.84
2024-01-24T08:49:22.649Z,103232.56
2024-01-24T08:51:49.726Z,103224.44
2024-01-24T08:54:17.482Z,103227.97
2024-01-24T08:56:44.758Z,103234.13
2024-01-24T08:59:12.444Z,103231.00
2024-01-24T09:01:39.554Z,103234.59
2024-01-24T09:04:06.798Z,103241.88
2024-01-24T09:06:34.016Z,103229.06
2024-01-24T09:09:01.117Z,103238.03
2024-01-24T09:11:34.419Z,103245.50
2024-01-24T09:14:05.406Z,103249.66
2024-01-24T09:16:32.739Z,103258.44
2024-01-24T09:18:59.930Z,103253.91
2024-01-24T09:21:27.162Z,103249.47
2024-01-24T09:23:54.328Z,103252.72
2024-01-24T09:26:21.451Z,103240.53
2024-01-24T09:28:48.398Z,103238.78
2024-01-24T09:31:16.016Z,103242.56
2024-01-24T09:33:43.203Z,103245.22
2024-01-24T09:36:11.119Z,103244.91
2024-01-24T09:38:38.014Z,103244.22
2024-01-24T09:41:14.963Z,103250.16
2024-01-24T09:43:42.530Z,103244.72
2024-01-24T09:46:13.696Z,103246.22
2024-01-24T09:48:42.884Z,103248.56
2024-01-24T09:51:10.709Z,103251.78
2024-01-24T09:53:39.963Z,103263.75
2024-01-24T09:56:08.917Z,103271.94
2024-01-24T09:58:35.781Z,103269.59
2024-01-24T10:01:05.779Z,103275.34
2024-01-24T10:03:36.768Z,103279.16
2024-01-24T10:06:09.145Z,103279.63
2024-01-24T10:08:36.118Z,103281.06
2024-01-24T10:11:03.075Z,103284.69
2024-01-24T10:13:31.626Z,103279.09
2024-01-24T10:16:01.008Z,103284.72
2024-01-24T10:18:28.254Z,103280.25
2024-01-24T10:20:55.318Z,103279.25
2024-01-24T10:23:22.790Z,103271.66
2024-01-24T10:25:49.863Z,103273.50
2024-01-24T10:28:18.331Z,103269.69
2024-01-24T10:30:47.854Z,103266.06
2024-01-24T10:33:16.597Z,103254.59
2024-01-24T10:35:45.102Z,103267.81
2024-01-24T10:38:13.166Z,103258.81
2024-01-24T10:40:41.614Z,103256.78
2024-01-24T10:43:13.967Z,103259.06
2024-01-24T10:45:49.641Z,103256.06
2024-01-24T10:48:18.390Z,103251.56
2024-01-24T10:50:46.231Z,103251.28
2024-01-24T10:53:14.704Z,103251.06
2024-01-24T10:55:42.671Z,103256.22
2024-01-24T10:58:13.276Z,103245.69
2024-01-24T11:00:42.507Z,103249.81
2024-01-24T11:03:09.628Z,103249.97
2024-01-24T11:05:48.250Z,103254.22
2024-01-24T11:08:36.341Z,103244.69
2024-01-24T11:11:14.649Z,103240.09
2024-01-24T11:13:43.853Z,103247.38
2024-01-24T11:16:26.521Z,103251.69
2024-01-24T11:19:00.588Z,103247.31
2024-01-24T11:21:33.438Z,103248.38
2024-01-24T11:24:00.812Z,103243.22
2024-01-24T11:26:27.727Z,103234.78
2024-01-24T11:29:16.834Z,103241.75
2024-01-24T11:31:45.055Z,103237.75
2024-01-24T11:34:16.707Z,103232.31
2024-01-24T11:36:53.508Z,103231.84
2024-01-24T11:39:29.820Z,103230.16
2024-01-24T11:42:30.087Z,103219.50
2024-01-24T11:45:17.437Z,103216.97
2024-01-24T11:47:45.540Z,103216.88
2024-01-24T11:50:12.954Z,103208.44
2024-01-24T11:52:41.002Z,103200.75
2024-01-24T11:55:08.466Z,103203.16
2024-01-24T11:57:35.681Z,103192.78
2024-01-24T12:00:03.413Z,103189.59
2024-01-24T12:02:32.098Z,103191.13
2024-01-24T12:04:59.253Z,103191.50
2024-01-24T12:07:26.589Z,103188.84
2024-01-24T12:09:54.426Z,103186.00
2024-01-24T12:12:21.732Z,103187.69
2024-01-24T12:14:49.480Z,103171.66
2024-01-24T12:17:16.882Z,103176.25
2024-01-24T12:19:47.000Z,103173.47
2024-01-24T12:22:14.853Z,103173.69
2024-01-24T12:24:42.067Z,103168.50
2024-01-24T12:27:09.762Z,103162.94
2024-01-24T12:29:37.506Z,103155.41
2024-01-24T12:32:06.383Z,103151.22
2024-01-24T12:34:34.099Z,103159.78
2024-01-24T12:37:01.872Z,103145.44
2024-01-24T12:39:31.516Z,103143.44
2024-01-24T12:41:59.316Z,103150.47
2024-01-24T12:44:26.760Z,103154.56
2024-01-24T12:47:00.814Z,103149.03
2024-01-24T12:49:28.655Z,103142.47
2024-01-24T12:51:56.374Z,103141.09
2024-01-24T12:54:23.430Z,103137.56
2024-01-24T12:56:51.783Z,103142.44
2024-01-24T12:59:19.200Z,103142.06
2024-01-24T13:01:46.210Z,103143.38
2024-01-24T13:04:13.255Z,103136.09
2024-01-24T13:06:41.650Z,103132.75
2024-01-24T13:09:09.578Z,103130.94
2024-01-24T13:11:36.923Z,103122.66
2024-01-24T13:14:03.955Z,103133.63
2024-01-24T13:16:30.982Z,103124.38
2024-01-24T13:18:58.279Z,103124.59
2024-01-24T13:21:25.852Z,103117.78
2024-01-24T13:23:52.821Z,103120.44
2024-01-24T13:26:19.808Z,103120.66
2024-01-24T13:28:46.779Z,103115.06
2024-01-24T13:31:13.826Z,103110.19
2024-01-24T13:33:42.254Z,103111.38
2024-01-24T13:36:10.643Z,103108.75
2024-01-24T13:38:37.874Z,103106.44
2024-01-24T13:41:05.037Z,103101.13
2024-01-24T13:43:32.413Z,103100.34
2024-01-24T13:45:59.431Z,103091.28
2024-01-24T13:48:27.108Z,103095.31
2024-01-24T13:50:56.228Z,103090.22
2024-01-24T13:53:23.307Z,103097.47
2024-01-24T13:55:50.327Z,103092.31
2024-01-24T13:58:17.973Z,103082.75
2024-01-24T14:00:45.113Z,103094.28
2024-01-24T14:03:12.267Z,103091.31
2024-01-24T14:05:40.228Z,103095.41
2024-01-24T14:08:08.098Z,103098.09
2024-01-24T14:10:35.504Z,103089.19
2024-01-24T14:13:02.646Z,103094.81
2024-01-24T14:15:34.716Z,103087.13
2024-01-24T14:18:04.527Z,103086.81
2024-01-24T14:20:31.762Z,103094.88
2024-01-24T14:22:58.685Z,103097.72
2024-01-24T14:25:25.755Z,103100.69
2024-01-24T14:27:52.875Z,103106.06
2024-01-24T14:30:20.096Z,103100.22
2024-01-24T14:32:47.143Z,103094.38
2024-01-24T14:35:18.194Z,103108.41
2024-01-24T14:37:45.495Z,103111.25
2024-01-24T14:40:15.775Z,103106.34
2024-01-24T14:42:43.435Z,103105.13
2024-01-24T14:45:10.807Z,103111.03
2024-01-24T14:47:38.188Z,103109.34
2024-01-24T14:50:07.052Z,103109.13
2024-01-24T14:52:34.550Z,103115.19
2024-01-24T14:55:04.803Z,103108.59
2024-01-24T14:57:33.472Z,103100.63
2024-01-24T15:00:01.435Z,103110.91
2024-01-24T15:02:28.602Z,103108.47
2024-01-24T15:04:55.958Z,103110.13
2024-01-24T15:07:23.931Z,103113.91
2024-01-24T15:09:51.079Z,103115.59
2024-01-24T15:12:17.955Z,103113.84
2024-01-24T15:14:44.849Z,103119.19
2024-01-24T15:17:11.716Z,103114.81
2024-01-24T15:19:42.196Z,103114.66
2024-01-24T15:22:17.313Z,103111.97
2024-01-24T15:24:45.238Z,103123.63
2024-01-24T15:27:12.473Z,103115.59
2024-01-24T15:29:40.087Z,103119.13
2024-01-24T15:32:07.102Z,103116.97
2024-01-24T15:34:34.174Z,103116.97
2024-01-24T15:37:01.288Z,103120.13
2024-01-24T15:39:28.212Z,103127.25
2024-01-24T15:42:00.887Z,103121.88
2024-01-24T15:44:28.814Z,103120.34
2024-01-24T15:46:58.530Z,103120.63
2024-01-24T15:49:25.565Z,103126.47
2024-01-24T15:51:52.620Z,103124.50
2024-01-24T15:54:19.725Z,103132.69
2024-01-24T15:56:47.489Z,103134.09
2024-01-24T15:59:14.498Z,103137.19
2024-01-24T16:01:48.772Z,103135.38
2024-01-24T16:04:18.913Z,103132.56
2024-01-24T16:06:46.306Z,103137.53
2024-01-24T16:09:13.401Z,103140.75
2024-01-24T16:11:40.569Z,103138.94
2024-01-24T16:14:08.159Z,103137.22
2024-01-24T16:16:36.068Z,103140.91
2024-01-24T16:19:03.015Z,103143.56
2024-01-24T16:21:29.924Z,103136.69
2024-01-24T16:23:56.811Z,103138.22
2024-01-24T16:26:23.677Z,103148.56
2024-01-24T16:28:50.564Z,103138.84
2024-01-24T16:31:18.052Z,103134.94
2024-01-24T16:33:45.013Z,103138.28
2024-01-24T16:36:12.565Z,103140.28
2024-01-24T16:38:39.519Z,103135.09
2024-01-24T16:41:07.628Z,103131.44
2024-01-24T16:43:37.315Z,103132.50
2024-01-24T16:46:06.282Z,103135.63
2024-01-24T16:48:33.420Z,103137.63
2024-01-24T16:51:00.701Z,103135.81
2024-01-24T16:53:28.026Z,103139.94
2024-01-24T16:55:54.940Z,103138.81
2024-01-24T16:58:21.792Z,103137.94
2024-01-24T17:00:48.779Z,103138.97
2024-01-24T17:03:15.758Z,103135.41
2024-01-24T17:05:42.769Z,103140.78
2024-01-24T17:08:09.657Z,103134.03
2024-01-24T17:10:36.519Z,103133.06
2024-01-24T17:13:03.693Z,103131.38
2024-01-24T17:15:31.207Z,103132.41
2024-01-24T17:17:59.277Z,103133.25
2024-01-24T17:20:26.268Z,103129.59
2024-01-24T17:22:53.205Z,103129.88
2024-01-24T17:25:21.757Z,103134.69
2024-01-24T17:27:48.709Z,103130.88
2024-01-24T17:30:17.334Z,103130.88
2024-01-24T17:32:44.346Z,103124.66
2024-01-24T17:35:11.338Z,103132.69
2024-01-24T17:37:38.354Z,103137.38
2024-01-24T17:40:06.381Z,103140.50
2024-01-24T17:42:33.832Z,103146.13
2024-01-24T17:45:00.883Z,103140.50
2024-01-24T17:47:27.912Z,103142.38
2024-01-24T17:49:54.965Z,103146.59
2024-01-24T17:52:21.965Z,103150.81
2024-01-24T17:54:49.090Z,103143.91
2024-01-24T17:57:17.083Z,103149.25
2024-01-24T17:59:44.132Z,103146.59
2024-01-24T18:02:11.160Z,103143.06
2024-01-24T18:04:38.089Z,103142.25
2024-01-24T18:07:05.233Z,103139.97
2024-01-24T18:09:32.823Z,103135.19
2024-01-24T18:11:59.866Z,103136.47
2024-01-24T18:14:26.804Z,103140.53
2024-01-24T18:16:53.836Z,103138.69
2024-01-24T18:19:20.826Z,103139.41
2024-01-24T18:21:48.119Z,103140.09
2024-01-24T18:24:15.015Z,103142.78
2024-01-24T18:26:42.287Z,103138.44
2024-01-24T18:29:09.237Z,103139.41
2024-01-24T18:31:36.275Z,103141.22
2024-01-24T18:34:04.576Z,103139.69
2024-01-24T18:36:31.621Z,103141.22
2024-01-24T18:38:58.525Z,103152.94
2024-01-24T18:41:25.410Z,103150.66
2024-01-24T18:43:54.171Z,103150.66
2024-01-24T18:46:22.050Z,103154.19
2024-01-24T18:48:49.558Z,103147.88
2024-01-24T18:51:17.565Z,103146.47
2024-01-24T18:53:45.402Z,103144.50
2024-01-24T18:56:15.196Z,103150.53
2024-01-24T18:58:42.263Z,103156.31
2024-01-24T19:01:11.562Z,103157.84
2024-01-24T19:03:39.064Z,103162.78
2024-01-24T19:06:06.559Z,103163.50
2024-01-24T19:08:35.486Z,103156.44
2024-01-24T19:11:05.442Z,103154.59
2024-01-24T19:13:34.709Z,103158.84
2024-01-24T19:16:01.962Z,103165.59
2024-01-24T19:18:30.225Z,103161.22
2024-01-24T19:20:57.462Z,103159.94
2024-01-24T19:23:24.941Z,103159.25
2024-01-24T19:25:51.867Z,103155.03
2024-01-24T19:28:18.931Z,103158.38
2024-01-24T19:30:46.126Z,103150.94
2024-01-24T19:33:13.298Z,103152.50
2024-01-24T19:35:41.798Z,103145.31
2024-01-24T19:38:08.660Z,103142.91
2024-01-24T19:40:35.507Z,103141.94
2024-01-24T19:43:02.527Z,103143.75
2024-01-24T19:45:29.869Z,103145.16
2024-01-24T19:47:57.167Z,103147.81
2024-01-24T19:50:24.750Z,103149.22
2024-01-24T19:52:52.388Z,103150.63
2024-01-24T19:55:21.390Z,103154.84
2024-01-24T19:57:48.317Z,103148.06
2024-01-24T20:00:15.693Z,103144.09
2024-01-24T20:02:42.752Z,103149.81
2024-01-24T20:05:09.965Z,103151.34
2024-01-24T20:07:37.004Z,103149.41
2024-01-24T20:10:04.389Z,103149.66
2024-01-24T20:12:31.461Z,103138.13
2024-01-24T20:14:58.341Z,103145.31
2024-01-24T20:17:26.011Z,103138.97
2024-01-24T20:19:53.612Z,103144.31
2024-01-24T20:22:20.559Z,103139.84
2024-01-24T20:24:47.638Z,103139.66
2024-01-24T20:27:14.701Z,103134.72
2024-01-24T20:29:41.607Z,103138.78
2024-01-24T20:32:08.636Z,103144.06
2024-01-24T20:34:35.733Z,103144.50
2024-01-24T20:37:03.231Z,103146.97
2024-01-24T20:39:30.533Z,103149.09
2024-01-24T20:41:58.210Z,103147.28
2024-01-24T20:44:25.159Z,103138.88
2024-01-24T20:46:52.040Z,103148.03
2024-01-24T20:49:19.037Z,103139.91
2024-01-24T20:51:48.977Z,103137.25
2024-01-24T20:54:17.808Z,103138.22
2024-01-24T20:56:45.297Z,103138.91
2024-01-24T20:59:12.232Z,103140.28
2024-01-24T21:01:39.372Z,103140.44
2024-01-24T21:04:06.632Z,103131.31
2024-01-24T21:06:33.840Z,103132.00
2024-01-24T21:09:00.756Z,103135.09
2024-01-24T21:11:27.714Z,103135.38
2024-01-24T21:13:54.606Z,103123.13
2024-01-24T21:16:21.492Z,103137.59
2024-01-24T21:18:48.497Z,103135.00
2024-01-24T21:21:16.110Z,103138.69
2024-01-24T21:23:43.069Z,103134.47
2024-01-24T21:26:10.002Z,103135.19
2024-01-24T21:28:36.898Z,103140.25
2024-01-24T21:31:04.005Z,103141.63
2024-01-24T21:33:33.005Z,103145.00
2024-01-24T21:36:00.562Z,103133.22
2024-01-24T21:38:27.540Z,103135.47
2024-01-24T21:40:54.553Z,103133.34
2024-01-24T21:43:21.698Z,103126.31
2024-01-24T21:45:48.608Z,103136.44
2024-01-24T21:48:16.662Z,103130.50
2024-01-24T21:50:44.665Z,103140.28
2024-01-24T21:53:11.598Z,103135.34
2024-01-24T21:55:38.631Z,103132.44
2024-01-24T21:58:05.726Z,103138.00
2024-01-24T22:00:32.891Z,103139.00
2024-01-24T22:02:59.831Z,103136.78
2024-01-24T22:05:26.932Z,103130.94
2024-01-24T22:07:53.944Z,103122.34
2024-01-24T22:10:20.974Z,103116.53
2024-01-24T22:12:49.050Z,103112.22
2024-01-24T22:15:17.508Z,103121.03
2024-01-24T22:17:44.675Z,103110.94
2024-01-24T22:20:12.024Z,103113.25
2024-01-24T22:22:39.055Z,103110.72
2024-01-24T22:25:08.443Z,103111.09
2024-01-24T22:27:35.432Z,103122.22
2024-01-24T22:30:06.020Z,103116.75
2024-01-24T22:32:33.840Z,103113.69
2024-01-24T22:35:06.215Z,103118.59
2024-01-24T22:37:33.448Z,103115.66
2024-01-24T22:40:00.536Z,103116.63
2024-01-24T22:42:27.895Z,103106.50
2024-01-24T22:44:54.825Z,103102.81
2024-01-24T22:47:22.384Z,103103.81
2024-01-24T22:49:49.512Z,103114.72
2024-01-24T22:52:18.378Z,103110.38
2024-01-24T22:54:45.414Z,103100.69
2024-01-24T22:57:13.028Z,103104.19
2024-01-24T22:59:39.916Z,103100.09
2024-01-24T23:02:06.977Z,103092.34
2024-01-24T23:04:34.243Z,103086.41
2024-01-24T23:07:01.462Z,103086.19
2024-01-24T23:09:28.622Z,103082.56
2024-01-24T23:11:55.738Z,103068.38
2024-01-24T23:14:22.649Z,103074.34
2024-01-24T23:16:49.607Z,103067.09
2024-01-24T23:19:17.034Z,103067.78
2024-01-24T23:21:44.065Z,103069.34
2024-01-24T23:24:11.192Z,103057.13
2024-01-24T23:26:38.512Z,103063.44
2024-01-24T23:29:05.900Z,103067.66
2024-01-24T23:31:32.802Z,103063.00
2024-01-24T23:34:00.035Z,103056.34
2024-01-24T23:36:27.184Z,103062.91
2024-01-24T23:38:54.514Z,103060.94
2024-01-24T23:41:21.672Z,103048.63
2024-01-24T23:43:48.566Z,103050.28
2024-01-24T23:46:15.658Z,103058.28
2024-01-24T23:48:43.152Z,103048.63
2024-01-24T23:51:10.490Z,103041.59
2024-01-24T23:53:37.591Z,103039.50
2024-01-24T23:56:05.041Z,103038.91
2024-01-24T23:58:32.221Z,103028.97
